Time;durP1;ratioP1;P1;durP2;ratioP2;P2;SDS_P1;SDS_P2;PMS_P1;PMS_P2;Temp;Humidity;BMP_temperature;BMP_pressure;BME280_temperature;BME280_humidity;BME280_pressure;Samples;Min_cycle;Max_cycle;Signal;HPM_P1;HPM_P2
2022/12/23 00:00:37;;;;;;;39.13;28.73;;;16.50;67.40;;;17.62;37.25;97844.94;5058552;28;20052;-71
2022/12/23 00:03:21;;;;;;;42.92;29.50;;;16.50;67.30;;;17.63;37.14;97852.00;5076838;28;20463;-71
2022/12/23 00:05:50;;;;;;;45.25;30.05;;;16.50;67.20;;;17.71;37.09;97854.63;5039802;28;20499;-71
2022/12/23 00:08:16;;;;;;;41.45;29.52;;;16.60;67.70;;;17.73;37.23;97851.53;5041082;28;20110;-72
2022/12/23 00:10:42;;;;;;;36.63;29.00;;;16.60;67.80;;;17.69;36.99;97861.63;5058651;28;20045;-71
2022/12/23 00:16:05;;;;;;;44.83;30.45;;;16.50;67.30;;;17.60;37.36;97858.97;5059635;28;20124;-71
2022/12/23 00:18:31;;;;;;;39.00;29.15;;;16.60;67.40;;;17.62;37.22;97864.13;5046657;28;20160;-71
2022/12/23 00:21:05;;;;;;;42.13;31.67;;;16.50;67.10;;;17.64;37.07;97870.88;5041868;28;20032;-71
2022/12/23 00:23:33;;;;;;;44.30;29.60;;;16.50;67.50;;;17.70;37.23;97868.69;5021942;28;20052;-71
2022/12/23 00:25:59;;;;;;;41.30;31.00;;;16.60;67.80;;;17.68;37.23;97868.22;5073018;28;20045;-71
2022/12/23 00:28:26;;;;;;;40.10;30.52;;;16.60;67.90;;;17.61;37.28;97874.28;5059061;28;20081;-71
2022/12/23 00:30:53;;;;;;;41.58;29.95;;;16.50;67.30;;;17.63;37.05;97873.94;5019421;28;20416;-71
2022/12/23 00:33:25;;;;;;;36.75;28.15;;;16.50;67.30;;;17.62;37.01;97872.34;5078410;28;21189;-70
2022/12/23 00:35:51;;;;;;;50.88;32.15;;;16.50;67.10;;;17.64;37.25;97870.06;5074085;28;20121;-71
2022/12/23 00:42:52;;;;;;;42.75;28.95;;;16.50;67.30;;;17.66;37.32;97871.31;5039143;28;20123;-71
2022/12/23 00:43:50;;;;;;;38.88;28.25;;;16.50;67.70;;;17.66;37.23;97882.28;5046215;28;20045;-71
2022/12/23 00:46:17;;;;;;;40.42;29.20;;;16.60;67.50;;;17.63;36.99;97884.91;5053896;28;20097;-72
2022/12/23 00:51:28;;;;;;;44.17;29.13;;;16.50;67.20;;;17.63;36.84;97890.38;5075622;28;20040;-71
2022/12/23 00:53:54;;;;;;;43.78;30.65;;;16.60;67.20;;;17.67;37.34;97888.56;5029294;28;20048;-71
2022/12/23 00:56:20;;;;;;;42.38;28.48;;;16.60;67.40;;;17.69;37.12;97895.31;5056903;28;20041;-70
2022/12/23 00:58:46;;;;;;;43.22;29.58;;;16.60;67.60;;;17.65;37.48;97882.63;5055794;28;20145;-70
2022/12/23 01:06:42;;;;;;;40.55;26.77;;;16.60;67.20;;;17.60;37.15;97886.38;5072118;28;20531;-70
2022/12/23 01:09:07;;;;;;;42.20;29.30;;;16.60;67.00;;;17.61;37.08;97887.22;5051864;28;20041;-70
2022/12/23 01:11:34;;;;;;;33.10;25.48;;;16.60;67.20;;;17.62;37.16;97895.06;5070407;28;20064;-72
2022/12/23 01:14:00;;;;;;;40.45;28.17;;;16.60;67.70;;;17.69;37.25;97894.53;5036090;28;20075;-72
2022/12/23 01:16:26;;;;;;;41.88;27.85;;;16.60;67.60;;;17.65;37.10;97899.88;5040746;28;20044;-71
2022/12/23 01:18:52;;;;;;;39.70;26.38;;;16.60;67.40;;;17.61;37.26;97887.22;5071469;28;20040;-71
2022/12/23 01:21:18;;;;;;;36.45;25.42;;;16.50;67.20;;;17.61;37.21;97882.53;5038400;28;20036;-71
2022/12/23 01:23:44;;;;;;;36.25;26.25;;;16.60;67.20;;;17.64;37.19;97887.31;5051932;28;20413;-71
2022/12/23 01:26:10;;;;;;;36.53;26.42;;;16.60;67.10;;;17.63;37.31;97877.50;5050873;28;20036;-72
2022/12/23 01:28:36;;;;;;;39.10;25.25;;;16.60;67.40;;;17.68;37.25;97870.97;5020109;28;20048;-72
2022/12/23 01:31:04;;;;;;;38.70;27.17;;;16.70;67.50;;;17.68;37.29;97862.72;5039630;28;20045;-71
2022/12/23 01:33:31;;;;;;;37.90;26.92;;;16.70;67.60;;;17.63;37.12;97869.28;5025370;28;20041;-71
2022/12/23 01:36:06;;;;;;;38.55;27.42;;;16.60;67.10;;;17.62;37.25;97872.34;5049968;28;20085;-71
2022/12/23 01:38:33;;;;;;;34.13;24.23;;;16.60;67.00;;;17.62;37.07;97866.88;5018249;28;20087;-71
2022/12/23 01:40:59;;;;;;;37.95;25.35;;;16.60;67.10;;;17.66;37.16;97865.03;5055349;28;20043;-71
2022/12/23 01:43:48;;;;;;;31.83;24.02;;;16.70;67.10;;;17.71;37.13;97870.31;5016866;28;20044;-71
2022/12/23 01:46:15;;;;;;;35.35;25.13;;;16.70;67.30;;;17.70;37.22;97866.72;5052580;28;20066;-71
2022/12/23 01:48:43;;;;;;;35.28;22.60;;;16.60;67.50;;;17.68;37.25;97868.22;4999266;28;20048;-71
2022/12/23 01:51:29;;;;;;;34.20;22.92;;;16.60;67.20;;;17.68;37.19;97870.97;5053578;28;20047;-71
2022/12/23 01:53:59;;;;;;;31.60;21.85;;;16.70;67.20;;;17.70;37.28;97868.69;5027670;28;20048;-71
2022/12/23 01:56:38;;;;;;;33.13;23.73;;;16.70;67.20;;;17.73;36.89;97876.22;5022077;28;20037;-72
2022/12/23 02:03:40;;;;;;;32.78;23.73;;;16.70;67.10;;;17.78;37.24;97879.56;5052983;28;20059;-71
2022/12/23 02:04:45;;;;;;;33.28;22.25;;;16.60;67.80;;;17.86;36.75;97883.34;5040539;28;20041;-70
2022/12/23 02:09:56;;;;;;;30.63;22.33;;;16.70;67.40;;;17.89;36.68;97887.34;5026064;28;20044;-71
2022/12/23 02:12:59;;;;;;;34.22;23.63;;;16.70;67.10;;;17.98;36.61;97888.81;5060219;28;20048;-71
2022/12/23 02:19:06;;;;;;;34.70;23.73;;;16.70;67.80;;;17.99;36.89;97893.16;5038486;28;20353;-72
2022/12/23 02:22:12;;;;;;;31.83;22.25;;;16.60;67.90;;;18.00;36.81;97889.25;4979817;28;20054;-71
2022/12/23 02:25:02;;;;;;;30.05;20.73;;;16.80;67.70;;;18.06;36.88;97891.78;5049581;28;20492;-72
2022/12/23 02:27:31;;;;;;;36.33;23.52;;;16.80;67.40;;;18.04;36.65;97891.31;5061618;28;20126;-71
2022/12/23 02:30:28;;;;;;;28.35;21.80;;;16.80;67.30;;;18.05;36.93;97895.69;5041904;28;20028;-71
2022/12/23 02:33:06;;;;;;;30.85;21.63;;;16.80;67.50;;;18.08;36.93;97900.47;5068467;28;20491;-71
2022/12/23 02:35:55;;;;;;;28.65;21.98;;;16.80;67.60;;;18.09;36.84;97897.41;5072514;28;20052;-71
2022/12/23 02:39:02;;;;;;;28.73;20.83;;;16.80;67.80;;;18.09;36.73;97902.06;5053196;28;20435;-71
2022/12/23 02:41:40;;;;;;;28.08;21.55;;;16.90;67.40;;;18.17;36.53;97898.41;5043351;28;20129;-71
2022/12/23 02:44:28;;;;;;;24.98;18.25;;;16.90;67.40;;;18.15;36.61;97906.97;5057723;28;20102;-71
2022/12/23 02:46:59;;;;;;;30.08;19.50;;;16.90;67.40;;;18.19;36.71;97901.59;5072879;28;20040;-71
2022/12/23 02:49:33;;;;;;;25.42;19.30;;;16.90;67.40;;;18.19;36.87;97907.91;5058531;28;20036;-71
2022/12/23 02:52:04;;;;;;;27.45;19.98;;;16.90;67.60;;;18.23;36.71;97895.06;5059821;28;20110;-72
2022/12/23 02:54:34;;;;;;;26.08;19.67;;;16.90;67.60;;;18.22;36.76;97904.47;5042118;28;20040;-72
2022/12/23 02:57:02;;;;;;;25.67;19.60;;;17.00;67.50;;;18.26;36.20;97893.56;5024502;28;20056;-71
2022/12/23 02:59:35;;;;;;;27.65;19.13;;;17.00;67.50;;;18.30;36.53;97902.72;5024385;28;20033;-71
2022/12/23 03:02:01;;;;;;;27.05;18.02;;;17.00;67.40;;;18.32;36.45;97900.44;5025727;28;20060;-71
2022/12/23 03:04:27;;;;;;;23.08;18.08;;;17.00;67.50;;;18.35;36.42;97902.47;5073089;28;20124;-71
2022/12/23 03:06:53;;;;;;;28.63;19.70;;;16.90;67.60;;;18.35;36.88;97893.47;5043529;28;20107;-71
2022/12/23 03:09:32;;;;;;;26.33;18.42;;;17.00;67.80;;;18.38;36.75;97893.53;5043289;28;20395;-70
2022/12/23 03:12:24;;;;;;;22.73;17.88;;;17.10;67.60;;;18.42;36.59;97894.47;5040017;28;20069;-71
2022/12/23 03:15:35;;;;;;;23.77;17.58;;;17.00;67.50;;;18.46;36.51;97904.75;5060224;28;20445;-71
2022/12/23 03:18:38;;;;;;;25.40;18.40;;;17.10;67.60;;;18.50;36.63;97902.91;4984136;28;20073;-70
2022/12/23 03:21:39;;;;;;;26.95;18.67;;;17.10;67.60;;;18.54;36.69;97903.81;5038805;28;20041;-71
2022/12/23 03:24:34;;;;;;;25.60;17.07;;;17.10;67.60;;;18.56;36.62;97905.06;5073057;28;20495;-71
2022/12/23 03:27:07;;;;;;;23.30;17.38;;;17.20;68.40;;;18.55;36.62;97900.72;5045991;28;20028;-71
2022/12/23 03:29:47;;;;;;;23.45;18.23;;;17.20;67.70;;;18.62;36.40;97900.94;5057398;28;20111;-71
2022/12/23 03:32:13;;;;;;;24.95;16.65;;;17.20;67.70;;;18.70;36.64;97909.34;5037249;28;20041;-71
2022/12/23 03:34:43;;;;;;;23.50;17.33;;;17.20;67.60;;;18.69;36.31;97905.03;5037957;28;20155;-71
2022/12/23 03:37:12;;;;;;;20.88;15.45;;;17.20;68.40;;;18.69;36.43;97896.78;5014899;28;20037;-71
2022/12/23 03:39:50;;;;;;;21.05;16.67;;;17.20;67.70;;;18.73;36.48;97901.22;5034282;28;20475;-71
2022/12/23 03:42:21;;;;;;;22.13;16.60;;;17.20;67.70;;;18.72;36.50;97910.59;5038686;28;20049;-71
2022/12/23 03:44:48;;;;;;;20.83;15.45;;;17.30;67.80;;;18.71;36.44;97895.28;5020991;28;20032;-71
2022/12/23 03:47:23;;;;;;;24.83;17.15;;;17.30;67.80;;;18.75;36.65;97904.47;5012588;28;20056;-71
2022/12/23 03:49:54;;;;;;;21.17;16.13;;;17.30;67.80;;;18.75;36.52;97898.13;5041758;28;20064;-71
2022/12/23 03:52:25;;;;;;;21.90;16.60;;;17.30;67.80;;;18.78;36.49;97900.22;5027412;28;20440;-71
2022/12/23 03:54:59;;;;;;;;;;;17.30;67.80;;;18.77;36.63;97906.84;5040423;28;20040;-71
2022/12/23 03:57:37;;;;;;;22.10;14.65;;;17.30;68.00;;;18.77;36.37;97896.66;5056167;28;19928;-71
2022/12/23 04:00:05;;;;;;;20.65;16.45;;;17.30;67.80;;;18.83;36.31;97906.25;5008031;28;20728;-71
2022/12/23 04:02:56;;;;;;;22.02;16.20;;;17.30;67.80;;;18.80;36.42;97906.13;5041046;28;20136;-71
2022/12/23 04:05:26;;;;;;;17.08;14.50;;;17.30;67.80;;;18.81;36.37;97908.53;5054276;28;20532;-71
2022/12/23 04:08:02;;;;;;;19.38;14.05;;;17.30;67.60;;;18.79;36.39;97908.09;5019779;28;20556;-71
2022/12/23 04:10:28;;;;;;;19.13;14.35;;;17.30;67.80;;;18.85;36.42;97914.13;5015125;28;20033;-71
2022/12/23 04:12:54;;;;;;;19.45;14.65;;;17.30;67.80;;;18.86;36.36;97908.28;5002046;28;20099;-71
2022/12/23 04:15:25;;;;;;;17.45;12.77;;;17.30;67.80;;;18.87;36.29;97912.63;5029672;28;20041;-71
2022/12/23 04:17:51;;;;;;;19.90;13.50;;;17.40;67.70;;;18.80;36.23;97906.97;5005521;28;20076;-70
2022/12/23 04:20:18;;;;;;;23.33;13.48;;;17.40;67.60;;;18.85;36.25;97901.22;5032333;28;20036;-71
2022/12/23 04:22:44;;;;;;;20.98;15.20;;;17.30;67.50;;;18.87;36.08;97909.88;5031740;28;20385;-70
2022/12/23 04:25:11;;;;;;;20.40;13.75;;;17.30;67.40;;;18.89;36.12;97900.50;5033590;28;20045;-70
2022/12/23 04:27:38;;;;;;;20.52;13.35;;;17.30;67.70;;;18.84;36.24;97905.09;5002520;28;20171;-70
2022/12/23 04:30:06;;;;;;;17.77;12.52;;;17.40;67.90;;;18.91;36.15;97903.72;5015195;28;20036;-71
2022/12/23 04:32:32;;;;;;;22.75;13.43;;;17.40;67.70;;;18.83;36.30;97913.72;5037905;28;20049;-70
2022/12/23 04:34:58;;;;;;;18.60;13.23;;;17.40;67.60;;;18.86;36.12;97897.31;5018793;28;20051;-70
2022/12/23 04:37:24;;;;;;;18.08;13.07;;;17.30;67.40;;;18.82;36.16;97901.09;5037694;28;20036;-71
2022/12/23 04:39:51;;;;;;;15.45;12.18;;;17.30;67.30;;;18.87;36.21;97909.88;5032847;28;20047;-71
2022/12/23 04:42:17;;;;;;;16.80;12.20;;;17.40;67.50;;;18.92;36.11;97908.03;5030775;28;20041;-71
2022/12/23 04:44:43;;;;;;;17.10;12.55;;;17.40;67.50;;;18.96;36.23;97900.72;5043482;28;20037;-71
2022/12/23 04:47:09;;;;;;;16.55;11.10;;;17.40;67.90;;;18.90;36.21;97899.34;5045653;28;20046;-70
2022/12/23 04:49:35;;;;;;;15.32;10.93;;;17.40;67.70;;;18.87;36.06;97898.09;5027033;28;20413;-71
2022/12/23 04:52:01;;;;;;;12.88;9.98;;;17.40;67.30;;;18.88;36.08;97894.22;5042062;28;20373;-71
2022/12/23 04:54:27;;;;;;;16.63;11.77;;;17.30;67.10;;;18.89;36.01;97895.00;5028245;28;20037;-71
2022/12/23 04:56:53;;;;;;;16.10;11.40;;;17.40;67.20;;;18.90;36.15;97891.91;5012742;28;20473;-71
2022/12/23 04:59:19;;;;;;;14.68;9.93;;;17.40;67.50;;;18.96;36.01;97889.72;5049486;28;20091;-71
2022/12/23 05:01:46;;;;;;;18.65;11.15;;;17.40;67.90;;;18.90;36.15;97886.41;5039215;28;20041;-71
2022/12/23 05:04:12;;;;;;;14.57;9.65;;;17.40;67.80;;;18.90;36.14;97880.91;5033932;28;20040;-71
2022/12/23 05:06:38;;;;;;;15.63;9.52;;;17.40;67.50;;;18.89;35.86;97884.03;5021076;28;20091;-70
2022/12/23 05:09:04;;;;;;;11.63;9.43;;;17.40;67.40;;;18.87;36.02;97870.63;5054630;28;20037;-70
2022/12/23 05:11:30;;;;;;;11.95;9.52;;;17.30;67.20;;;18.90;35.90;97869.13;5037560;28;20077;-70
2022/12/23 05:13:56;;;;;;;12.70;10.48;;;17.30;67.30;;;18.93;36.11;97862.91;5032107;28;20095;-70
2022/12/23 05:16:22;;;;;;;14.48;9.80;;;17.30;67.70;;;18.93;35.92;97869.25;5019282;28;20456;-71
2022/12/23 05:18:48;;;;;;;18.45;11.38;;;17.30;67.80;;;18.96;36.02;97860.28;5019917;28;20037;-71
2022/12/23 05:21:14;;;;;;;12.90;9.88;;;17.30;67.60;;;18.89;36.00;97867.53;5014916;28;20048;-71
2022/12/23 05:23:41;;;;;;;11.90;8.85;;;17.40;67.50;;;18.89;35.96;97873.03;5018520;28;20041;-71
2022/12/23 05:26:07;;;;;;;15.13;9.57;;;17.40;67.30;;;18.86;36.00;97869.03;5036218;28;20502;-71
2022/12/23 05:28:33;;;;;;;14.13;9.98;;;17.40;67.10;;;18.86;36.10;97867.09;5013292;28;20461;-71
2022/12/23 05:31:06;;;;;;;12.77;9.88;;;17.40;67.40;;;18.92;36.01;97875.06;5040292;28;20052;-71
2022/12/23 05:33:33;;;;;;;10.73;8.98;;;17.30;67.70;;;18.96;36.21;97878.72;5005224;28;20385;-71
2022/12/23 05:35:59;;;;;;;11.63;9.15;;;17.30;67.80;;;18.93;35.92;97874.72;5037067;28;20079;-71
2022/12/23 05:38:25;;;;;;;12.73;9.07;;;17.30;67.60;;;18.90;35.99;97874.63;5025941;28;20483;-71
2022/12/23 05:40:51;;;;;;;8.95;7.50;;;17.30;67.30;;;18.90;35.48;97874.63;5000694;28;20048;-71
2022/12/23 05:43:17;;;;;;;11.45;9.10;;;17.30;67.30;;;18.85;35.70;97862.75;5023279;28;20048;-71
2022/12/23 05:45:43;;;;;;;11.70;9.40;;;17.30;67.00;;;18.94;36.03;97872.78;5037609;28;20044;-71
2022/12/23 05:48:10;;;;;;;13.13;8.80;;;17.30;67.50;;;18.94;36.17;97875.53;5034393;28;20041;-71
2022/12/23 05:50:37;;;;;;;12.48;8.98;;;17.30;67.80;;;18.89;36.02;97868.31;5053394;28;20493;-71
2022/12/23 05:53:04;;;;;;;10.13;7.82;;;17.30;67.80;;;18.92;35.92;97870.38;5017846;28;20041;-71
2022/12/23 05:55:30;;;;;;;11.93;9.35;;;17.30;67.60;;;18.98;35.80;97876.41;5018042;28;20071;-71
2022/12/23 05:57:56;;;;;;;11.15;9.15;;;17.30;67.50;;;18.97;35.90;97878.34;5026288;28;20050;-71
2022/12/23 06:00:22;;;;;;;11.68;8.63;;;17.30;67.40;;;18.93;35.77;97879.41;5032525;28;20048;-72
2022/12/23 06:02:48;;;;;;;10.43;8.32;;;17.30;67.30;;;18.94;36.09;97881.03;5011105;28;20509;-72
2022/12/23 06:05:14;;;;;;;9.60;7.85;;;17.30;67.70;;;18.96;36.01;97881.47;5037635;28;20074;-72
2022/12/23 06:07:40;;;;;;;9.55;7.65;;;17.40;67.90;;;18.96;36.10;97878.72;5048666;28;20722;-72
2022/12/23 06:10:08;;;;;;;9.48;7.63;;;17.40;67.90;;;18.95;35.99;97877.91;5016909;28;20041;-71
2022/12/23 06:12:34;;;;;;;9.48;7.60;;;17.30;67.40;;;18.93;36.03;97876.66;5053326;28;20048;-71
2022/12/23 06:15:00;;;;;;;9.45;8.07;;;17.30;67.40;;;18.92;35.97;97875.06;5036052;28;21284;-71
2022/12/23 06:17:26;;;;;;;11.45;7.90;;;17.30;67.50;;;18.92;35.91;97877.81;5052894;28;20036;-72
2022/12/23 06:19:52;;;;;;;10.88;8.38;;;17.30;67.50;;;18.91;36.00;97877.03;5032500;28;20134;-72
2022/12/23 06:22:20;;;;;;;10.02;7.50;;;17.30;67.80;;;18.92;36.27;97883.31;5054389;28;20040;-72
2022/12/23 06:24:47;;;;;;;10.98;7.55;;;17.30;68.00;;;18.94;36.09;97878.28;5049093;28;20185;-72
2022/12/23 06:27:13;;;;;;;12.32;7.93;;;17.30;67.80;;;18.92;36.06;97880.56;5038758;28;20032;-71
2022/12/23 06:29:39;;;;;;;9.48;7.75;;;17.30;67.90;;;18.91;35.78;97889.97;5033055;28;20052;-71
2022/12/23 06:32:05;;;;;;;9.57;7.55;;;17.20;67.70;;;18.92;35.96;97888.81;5054242;28;20033;-71
2022/12/23 06:34:31;;;;;;;9.20;6.90;;;17.30;67.80;;;18.89;36.15;97884.03;5036434;28;20075;-71
2022/12/23 06:36:57;;;;;;;9.85;7.63;;;17.20;67.70;;;18.91;36.44;97884.47;5029608;28;20043;-72
2022/12/23 06:39:24;;;;;;;11.43;7.93;;;17.30;68.00;;;18.91;36.47;97885.28;5029444;28;20472;-72
2022/12/23 06:41:50;;;;;;;10.90;7.70;;;17.20;68.20;;;18.89;36.32;97889.53;5029983;28;20471;-72
2022/12/23 06:44:16;;;;;;;10.45;7.40;;;17.30;67.90;;;18.91;36.45;97887.22;5026812;28;20049;-72
2022/12/23 06:46:42;;;;;;;10.32;8.07;;;17.30;67.80;;;18.90;36.15;97885.59;5011977;28;20483;-72
2022/12/23 06:49:08;;;;;;;8.75;6.63;;;17.30;67.80;;;18.89;35.96;97881.28;5046036;28;20045;-72
2022/12/23 06:51:34;;;;;;;9.05;7.13;;;17.20;67.70;;;18.89;36.31;97879.31;5043929;28;20086;-72
2022/12/23 06:54:00;;;;;;;9.80;7.20;;;17.20;68.20;;;18.90;36.44;97882.84;5028847;28;20052;-72
2022/12/23 06:56:26;;;;;;;8.15;7.18;;;17.20;68.40;;;18.89;36.42;97884.81;5016265;28;20048;-72
2022/12/23 06:58:53;;;;;;;9.80;7.47;;;17.20;68.40;;;18.85;36.23;97887.47;5013677;28;20139;-71
2022/12/23 07:01:19;;;;;;;7.22;6.53;;;17.20;68.10;;;18.90;36.02;97885.59;5054765;28;20036;-71
2022/12/23 07:03:45;;;;;;;8.65;6.50;;;17.30;67.80;;;18.91;36.28;97881.72;5023730;28;20067;-71
2022/12/23 07:06:11;;;;;;;8.07;6.70;;;17.20;67.90;;;18.85;36.21;97879.22;5012172;28;20098;-71
2022/12/23 07:08:37;;;;;;;7.43;6.30;;;17.20;67.90;;;18.85;36.47;97886.66;5054254;28;20373;-71
2022/12/23 07:11:04;;;;;;;9.07;7.07;;;17.20;68.20;;;18.91;36.47;97882.53;5038426;28;20043;-71
2022/12/23 07:13:31;;;;;;;8.80;6.47;;;17.20;68.80;;;18.86;36.39;97880.81;5048773;28;20761;-71
2022/12/23 07:15:57;;;;;;;8.00;7.05;;;17.20;68.20;;;18.88;36.35;97877.72;5050115;28;20123;-71
2022/12/23 07:18:24;;;;;;;9.43;6.93;;;17.20;68.00;;;18.89;36.14;97876.56;5050578;28;20473;-72
2022/12/23 07:20:51;;;;;;;8.85;7.05;;;17.20;68.00;;;18.90;36.20;97880.91;5022264;28;20102;-72
2022/12/23 07:23:17;;;;;;;7.90;6.20;;;17.20;67.80;;;18.86;36.35;97885.53;5034506;28;20047;-71
2022/12/23 07:25:43;;;;;;;8.10;6.38;;;17.20;68.10;;;18.89;36.51;97887.56;5025359;28;20040;-71
2022/12/23 07:28:09;;;;;;;9.23;6.65;;;17.20;68.40;;;18.93;36.46;97884.91;5045169;28;20044;-72
2022/12/23 07:30:36;;;;;;;7.75;6.95;;;17.20;68.50;;;18.87;36.40;97881.63;5041245;28;20044;-72
2022/12/23 07:33:01;;;;;;;8.43;7.03;;;17.30;68.20;;;18.90;36.07;97889.16;5075561;28;20058;-71
2022/12/23 07:35:28;;;;;;;8.55;6.57;;;17.30;67.80;;;18.90;36.05;97880.91;5045768;28;20042;-72
2022/12/23 07:37:54;;;;;;;8.65;6.38;;;17.20;67.80;;;18.91;36.24;97887.22;5020763;28;20422;-72
2022/12/23 07:40:24;;;;;;;9.32;7.20;;;17.30;67.80;;;18.92;36.36;97883.31;5023166;28;20127;-71
2022/12/23 07:42:57;;;;;;;7.63;6.53;;;17.20;68.30;;;18.93;36.49;97880.22;5005646;28;20309;-71
2022/12/23 07:45:24;;;;;;;8.90;6.13;;;17.20;68.40;;;18.92;36.30;97872.31;5060914;28;20352;-71
2022/12/23 07:47:58;;;;;;;7.63;6.63;;;17.20;68.60;;;18.88;36.37;97874.97;5043032;28;20095;-71
2022/12/23 07:50:25;;;;;;;8.75;6.43;;;17.20;68.30;;;18.87;36.47;97873.38;5037855;28;20051;-71
2022/12/23 07:52:51;;;;;;;7.18;5.85;;;17.20;68.10;;;18.88;36.20;97872.25;5051657;28;20155;-71
2022/12/23 07:55:19;;;;;;;7.47;6.50;;;17.20;67.90;;;18.90;36.12;97874.63;5037829;28;20489;-71
2022/12/23 07:57:51;;;;;;;9.18;6.05;;;17.30;68.20;;;18.94;36.22;97876.31;5039632;28;20040;-71
2022/12/23 08:00:18;;;;;;;7.32;6.10;;;17.20;68.40;;;19.00;36.23;97874.09;5028854;28;20044;-71
2022/12/23 08:02:44;;;;;;;9.75;6.55;;;17.20;68.60;;;18.93;36.37;97868.41;5059314;28;20582;-71
2022/12/23 08:05:11;;;;;;;7.82;6.25;;;17.20;68.40;;;18.92;36.10;97875.06;5061151;28;20082;-71
2022/12/23 08:07:37;;;;;;;8.43;5.93;;;17.20;68.10;;;18.92;35.97;97872.31;5049776;28;20084;-71
2022/12/23 08:10:05;;;;;;;7.72;6.13;;;17.20;68.00;;;18.93;36.04;97871.97;5028466;28;20438;-71
2022/12/23 08:12:31;;;;;;;8.43;6.32;;;17.20;68.00;;;18.91;36.36;97871.53;5047834;28;20318;-71
2022/12/23 08:14:57;;;;;;;7.45;5.85;;;17.20;68.20;;;18.92;36.46;97872.31;5071096;28;20047;-71
2022/12/23 08:17:27;;;;;;;7.22;6.03;;;17.20;68.40;;;18.94;36.30;97872.78;5019116;28;20039;-71
2022/12/23 08:19:54;;;;;;;7.17;6.20;;;17.20;68.50;;;18.93;36.33;97873.91;5038552;28;20491;-71
2022/12/23 08:22:20;;;;;;;7.78;6.50;;;17.30;68.10;;;18.91;36.53;97882.53;5053201;28;20036;-71
2022/12/23 08:24:47;;;;;;;8.25;6.45;;;17.30;68.00;;;18.90;36.39;97880.91;5027871;28;20436;-71
2022/12/23 08:27:13;;;;;;;7.72;5.93;;;17.20;68.00;;;18.89;36.34;97878.53;5051121;28;20400;-71
2022/12/23 08:29:39;;;;;;;8.68;6.25;;;17.20;68.20;;;18.86;36.76;97869.03;5016146;28;20368;-71
2022/12/23 08:32:06;;;;;;;7.85;5.68;;;17.20;68.50;;;18.90;36.47;97880.13;5033481;28;21027;-71
2022/12/23 08:34:32;;;;;;;8.00;6.43;;;17.20;68.60;;;18.90;36.35;97872.66;5068367;28;20452;-71
2022/12/23 08:36:58;;;;;;;8.70;6.25;;;17.20;68.50;;;18.92;36.37;97877.81;5033843;28;20048;-71
2022/12/23 08:39:24;;;;;;;8.35;6.28;;;17.20;68.40;;;18.87;36.29;97871.41;5033663;28;20060;-71
2022/12/23 08:41:52;;;;;;;10.00;6.85;;;17.20;68.10;;;18.94;36.21;97878.28;5051185;28;20062;-71
2022/12/23 08:44:18;;;;;;;8.75;6.22;;;17.20;67.90;;;18.93;36.20;97873.91;5062416;28;20059;-71
2022/12/23 08:46:44;;;;;;;9.10;7.05;;;17.20;68.30;;;18.95;36.45;97872.41;5033236;28;20075;-71
2022/12/23 08:49:11;;;;;;;9.27;5.95;;;17.20;68.50;;;18.96;36.43;97865.00;5050309;28;20048;-71
2022/12/23 08:51:37;;;;;;;9.05;6.53;;;17.20;68.60;;;18.95;36.24;97861.41;5052680;28;20110;-71
2022/12/23 08:54:03;;;;;;;6.90;6.20;;;17.20;68.30;;;18.92;36.29;97858.59;5036364;28;20044;-71
2022/12/23 08:56:35;;;;;;;9.90;7.78;;;17.20;68.00;;;18.94;36.13;97857.09;5033575;28;20037;-71
2022/12/23 08:59:02;;;;;;;9.88;6.78;;;17.20;68.00;;;18.95;36.13;97853.16;5053556;28;20044;-71
2022/12/23 09:01:30;;;;;;;8.60;6.68;;;17.20;68.00;;;19.03;36.13;97851.41;5030613;28;20044;-71
2022/12/23 09:03:56;;;;;;;9.45;6.75;;;17.20;68.40;;;19.05;36.39;97851.84;5033158;28;20131;-71
2022/12/23 09:06:25;;;;;;;8.43;6.00;;;17.20;68.50;;;19.06;36.07;97847.97;5033333;28;20569;-71
2022/12/23 09:08:52;;;;;;;10.98;6.32;;;17.20;68.40;;;19.09;35.90;97845.31;5018226;28;20048;-71
2022/12/23 09:11:21;;;;;;;7.90;6.53;;;17.30;68.10;;;19.08;35.98;97848.41;5052330;28;20048;-71
2022/12/23 09:13:47;;;;;;;8.98;6.50;;;17.30;67.80;;;19.09;35.84;97844.53;5033609;28;20053;-71
2022/12/23 09:16:13;;;;;;;8.52;6.88;;;17.40;67.90;;;19.05;35.86;97833.41;5051025;28;20043;-71
2022/12/23 09:18:40;;;;;;;11.85;7.65;;;17.40;67.90;;;19.07;35.98;97842.13;5031049;28;20052;-71
2022/12/23 09:21:15;;;;;;;10.10;7.47;;;17.40;68.20;;;19.13;36.08;97834.41;5036473;28;20052;-71
2022/12/23 09:23:41;;;;;;;10.85;7.70;;;17.40;68.40;;;19.12;36.05;97832.03;5050594;28;20040;-71
2022/12/23 09:26:16;;;;;;;10.10;7.65;;;17.40;68.20;;;19.08;35.89;97829.97;5064581;28;20114;-71
2022/12/23 09:28:42;;;;;;;10.55;7.10;;;17.40;67.90;;;19.13;35.55;97828.91;5041475;28;20036;-71
2022/12/23 09:31:10;;;;;;;10.15;8.05;;;17.40;67.90;;;19.07;35.99;97830.31;5066043;28;20037;-71
2022/12/23 09:33:36;;;;;;;7.30;6.60;;;17.40;67.90;;;19.08;36.10;97823.66;5045791;28;20276;-71
2022/12/23 09:36:03;;;;;;;11.30;8.20;;;17.40;68.10;;;19.10;36.15;97829.63;5050147;28;20064;-71
2022/12/23 09:38:29;;;;;;;12.25;7.35;;;17.40;68.20;;;19.08;36.04;97820.91;5046508;28;20372;-71
2022/12/23 09:41:16;;;;;;;11.93;8.32;;;17.40;68.20;;;19.03;36.05;97818.44;5017628;28;20040;-71
2022/12/23 09:44:23;;;;;;;12.50;8.30;;;17.40;67.90;;;19.04;35.97;97814.53;5066111;28;20044;-71
2022/12/23 09:47:02;;;;;;;9.68;7.22;;;17.50;67.80;;;19.00;36.02;97797.16;5025202;28;20060;-71
2022/12/23 09:49:28;;;;;;;10.38;7.80;;;17.50;67.60;;;19.04;35.99;97798.06;5050644;28;20044;-71
2022/12/23 09:51:59;;;;;;;10.27;7.57;;;17.50;67.90;;;19.02;36.20;97776.41;5065121;28;20578;-71
2022/12/23 09:54:36;;;;;;;12.30;7.87;;;17.50;68.00;;;19.07;36.29;97780.84;5021541;28;20036;-71
2022/12/23 09:57:34;;;;;;;9.82;7.55;;;17.50;68.00;;;19.06;36.06;97771.81;5036969;28;20306;-71
2022/12/23 10:00:13;;;;;;;9.63;8.20;;;17.50;67.70;;;19.06;36.10;97769.06;5036112;28;20435;-71
2022/12/23 10:02:44;;;;;;;12.10;8.60;;;17.50;67.60;;;19.06;35.98;97765.53;5039278;28;20388;-71
2022/12/23 10:05:38;;;;;;;8.95;7.82;;;17.50;67.40;;;19.09;36.06;97762.06;5037748;28;20041;-71
2022/12/23 10:08:21;;;;;;;9.65;7.80;;;17.60;67.60;;;19.10;36.03;97763.66;5063973;28;20056;-71
2022/12/23 10:10:54;;;;;;;10.57;8.98;;;17.60;67.80;;;19.16;36.02;97756.75;5032921;28;20043;-71
2022/12/23 10:13:24;;;;;;;11.32;8.35;;;17.60;67.80;;;19.22;35.69;97760.00;5033485;28;20491;-71
2022/12/23 10:15:58;;;;;;;11.13;8.52;;;17.60;67.50;;;19.18;35.75;97764.63;5045966;28;20411;-71
2022/12/23 10:18:55;;;;;;;10.18;8.35;;;17.60;67.30;;;19.21;35.85;97759.22;5031701;28;20479;-71
2022/12/23 10:21:47;;;;;;;13.60;9.02;;;17.70;67.20;;;19.14;36.15;97764.53;5033433;28;20044;-71
2022/12/23 10:24:24;;;;;;;10.07;7.72;;;17.70;67.20;;;19.17;35.99;97760.28;5045260;28;20045;-71
2022/12/23 10:27:33;;;;;;;11.02;9.18;;;17.70;67.30;;;19.11;36.08;97773.50;5032995;28;20056;-71
2022/12/23 10:30:06;;;;;;;9.90;8.30;;;17.70;67.40;;;19.15;36.26;97763.38;5032594;28;20419;-71
2022/12/23 10:33:10;;;;;;;13.77;8.55;;;17.70;67.10;;;19.06;36.03;97758.06;5018095;28;20090;-72
2022/12/23 10:36:04;;;;;;;12.00;9.10;;;17.70;67.20;;;19.11;36.02;97759.75;5028489;28;20064;-72
2022/12/23 10:38:53;;;;;;;11.65;8.32;;;17.70;67.20;;;19.11;35.82;97764.44;5044153;28;20624;-72
2022/12/23 10:41:55;;;;;;;12.73;9.65;;;17.70;67.50;;;19.15;36.06;97763.38;5052550;28;20041;-72
2022/12/23 10:44:58;;;;;;;9.35;8.43;;;17.70;67.60;;;19.13;36.01;97754.69;4997952;28;20072;-72
2022/12/23 10:47:33;;;;;;;11.50;9.15;;;17.70;67.30;;;19.12;35.90;97755.06;5045372;28;20475;-72
2022/12/23 10:50:21;;;;;;;10.15;8.77;;;17.70;67.20;;;19.12;36.10;97744.84;5057303;28;20142;-72
2022/12/23 10:52:47;;;;;;;12.65;10.02;;;17.70;67.10;;;19.14;35.88;97747.25;5068960;28;20423;-72